This is the latest recevied weather packets stored in our database for station/object UR7D-12. If no packets are shown the sender has not sent any weather packets the latest 10 day(s).
| Time | Temp. | Humidity | Pressure | Rain* | Wind** | Luminosity | Snow |
|---|---|---|---|---|---|---|---|
| 1777496859 | 6.11° C | 46% | 997.4 hPa | 0 mm | - | - | - |
| 1777496560 | 6.11° C | 46% | 997.3 hPa | 0 mm | - | - | - |
| 1777496260 | 6.11° C | 45% | 997.4 hPa | 0 mm | - | - | - |
| 1777495659 | 6.11° C | 45% | 997.4 hPa | 0 mm | - | - | - |
| 1777494755 | 6.11° C | 46% | 997.3 hPa | 0 mm | - | - | - |
| 1777494456 | 6.11° C | 46% | 997.1 hPa | 0 mm | - | - | - |
| 1777494156 | 6.11° C | 46% | 997.1 hPa | 0 mm | - | - | - |
| 1777493557 | 5.56° C | 47% | 997 hPa | 0 mm | - | - | - |
| 1777492356 | 6.67° C | 44% | 996.8 hPa | 0 mm | - | - | - |
| 1777491453 | 7.22° C | 43% | 996.8 hPa | 0 mm | - | - | - |
| 1777491154 | 7.22° C | 43% | 996.7 hPa | 0 mm | - | - | - |
| 1777490252 | 7.22° C | 42% | 996.7 hPa | 0 mm | - | - | - |
| 1777489953 | 7.22° C | 42% | 996.6 hPa | 0 mm | - | - | - |
| 1777489651 | 7.22° C | 42% | 996.6 hPa | 0 mm | - | - | - |
| 1777488453 | 7.22° C | 43% | 996.4 hPa | 0 mm | - | - | - |
| 1777487850 | 7.22° C | 43% | 996.4 hPa | 0 mm | - | - | - |
| 1777487549 | 7.22° C | 42% | 996.4 hPa | 0 mm | - | - | - |
| 1777487249 | 7.78° C | 41% | 996.2 hPa | 0 mm | - | - | - |
| 1777486949 | 7.78° C | 41% | 996 hPa | 0 mm | - | - | - |
| 1777486350 | 7.78° C | 41% | 995.9 hPa | 0 mm | - | - | - |
| 1777486048 | 7.78° C | 41% | 995.9 hPa | 0 mm | - | - | - |
| 1777485750 | 7.78° C | 40% | 995.8 hPa | 0 mm | - | - | - |
| 1777484847 | 8.33° C | 38% | 995.5 hPa | 0 mm | - | - | - |
| 1777483646 | 8.89° C | 37% | 995 hPa | 0 mm | - | - | - |
| 1777480343 | 11.11° C | 34% | 994.4 hPa | 0 mm | - | - | - |
* Rain latest hour (hover to see other rain measurements)
** Current wind speed in m/s (hover to see current wind gust speed)